Time;durP1;ratioP1;P1;durP2;ratioP2;P2;SDS_P1;SDS_P2;PMS_P1;PMS_P2;Temp;Humidity;BMP_temperature;BMP_pressure;BME280_temperature;BME280_humidity;BME280_pressure;Samples;Min_cycle;Max_cycle;Signal;HPM_P1;HPM_P2
2023/06/27 00:00:43;;;;;;;;;16.00;14.25;;;;;24.75;61.34;100626.97;146617;640;46015;-69
2023/06/27 00:03:51;;;;;;;;;11.25;11.25;;;;;24.69;61.65;100624.38;146619;569;46010;-68
2023/06/27 00:07:10;;;;;;;;;13.00;12.00;;;;;23.61;60.35;100436.13;146618;665;46015;-69
2023/06/27 00:10:02;;;;;;;;;14.75;11.25;;;;;24.64;62.73;100614.69;146621;659;46010;-71
2023/06/27 00:13:04;;;;;;;;;12.75;9.75;;;;;24.54;62.16;100610.31;146618;675;46012;-70
2023/06/27 00:16:06;;;;;;;;;12.25;11.75;;;;;24.46;61.72;100624.56;146619;588;46021;-71
2023/06/27 00:19:15;;;;;;;;;15.00;14.00;;;;;24.41;60.33;100614.84;146617;574;47012;-70
2023/06/27 00:22:30;;;;;;;;;;;;;;;;;;;;;
2023/06/27 00:25:35;;;;;;;;;17.00;14.25;;;;;24.45;60.34;100621.00;146618;592;46016;-71
2023/06/27 00:28:51;;;;;;;;;11.75;11.50;;;;;24.41;60.74;100616.59;146616;710;46020;-71
2023/06/27 00:31:57;;;;;;;;;15.00;13.25;;;;;24.29;60.68;100612.25;146618;623;46032;-68
2023/06/27 00:34:52;;;;;;;;;17.50;14.00;;;;;24.19;60.11;100608.78;146618;637;46020;-69
2023/06/27 00:37:58;;;;;;;;;11.25;10.00;;;;;23.00;59.42;100409.16;146615;698;46016;-68
2023/06/27 00:41:08;;;;;;;;;;;;;;;;;;;;;
2023/06/27 00:44:03;;;;;;;;;12.50;12.00;;;;;24.26;59.45;100608.75;146633;650;45016;-70
2023/06/27 00:47:03;;;;;;;;;14.75;12.75;;;;;24.32;58.71;100611.34;146632;691;45010;-70
2023/06/27 00:50:02;;;;;;;;;15.00;12.00;;;;;24.33;59.10;100606.06;146634;643;45016;-69
2023/06/27 00:53:12;;;;;;;;;12.25;10.75;;;;;24.32;59.12;100604.28;146634;697;45021;-70
2023/06/27 00:56:16;;;;;;;;;10.00;10.00;;;;;24.44;58.54;100608.66;146625;633;48916;-70
2023/06/27 00:59:15;;;;;;;;;13.50;12.00;;;;;24.50;58.38;100613.03;146635;628;45020;-70
2023/06/27 01:02:22;;;;;;;;;13.75;11.75;;;;;24.40;58.31;100607.75;146630;637;45017;-69
2023/06/27 01:05:28;;;;;;;;;11.00;9.67;;;;;24.33;58.86;100613.09;146634;593;45020;-67
2023/06/27 01:08:38;;;;;;;;;11.33;11.33;;;;;24.30;58.60;100614.03;146631;660;46016;-68
2023/06/27 01:11:59;;;;;;;;;13.25;11.25;;;;;24.34;59.45;100614.88;146634;563;45028;-70
2023/06/27 01:15:13;;;;;;;;;11.00;11.00;;;;;24.38;58.43;100617.47;146631;677;45013;-71
2023/06/27 01:18:21;;;;;;;;;10.50;10.00;;;;;24.24;58.06;100614.06;146629;725;46010;-68
2023/06/27 01:21:31;;;;;;;;;13.75;12.50;;;;;24.15;58.42;100609.69;146630;584;46914;-69
2023/06/27 01:24:29;;;;;;;;;12.67;11.00;;;;;24.07;59.22;100623.87;146635;730;45028;-71
2023/06/27 01:27:24;;;;;;;;;10.33;9.33;;;;;23.93;59.79;100608.94;146632;610;45016;-68
2023/06/27 01:30:32;;;;;;;;;14.00;12.25;;;;;23.79;60.02;100608.12;146634;586;45011;-68
2023/06/27 01:33:44;;;;;;;;;;;;;;;;;;;;;
2023/06/27 01:37:17;;;;;;;;;9.75;8.75;;;;;23.65;59.82;100610.81;146635;608;45021;-68
2023/06/27 01:40:59;;;;;;;;;14.25;11.25;;;;;22.47;58.75;100418.09;146620;570;46014;-68
2023/06/27 01:44:15;;;;;;;;;11.33;10.67;;;;;23.63;59.55;100617.00;146620;578;47013;-70
2023/06/27 01:47:23;;;;;;;;;11.00;10.00;;;;;23.59;60.52;100616.13;146619;598;46014;-70
2023/06/27 01:50:36;;;;;;;;;;;;;;;;;;;;;
2023/06/27 01:53:36;;;;;;;;;10.33;10.33;;;;;23.52;60.30;100617.94;146617;673;46012;-70
2023/06/27 01:56:40;;;;;;;;;12.75;11.00;;;;;23.50;60.35;100610.88;146619;574;46020;-71
2023/06/27 01:59:42;;;;;;;;;8.75;8.75;;;;;23.50;60.32;100614.41;146617;633;47013;-71
2023/06/27 02:02:40;;;;;;;;;11.75;10.00;;;;;23.51;60.05;100616.16;146619;677;46012;-69
2023/06/27 02:05:49;;;;;;;;;10.00;9.00;;;;;22.30;59.17;100396.13;146619;573;46013;-69
2023/06/27 02:08:53;;;;;;;;;11.00;9.00;;;;;23.63;59.08;100617.00;146625;604;46012;-69
2023/06/27 02:12:16;;;;;;;;;;;;;;;;;;;;;
2023/06/27 02:15:13;;;;;;;;;11.33;9.67;;;;;23.74;59.36;100624.03;146619;571;46021;-69
2023/06/27 02:18:22;;;;;;;;;9.00;9.00;;;;;22.64;58.82;100462.09;146617;615;46016;-68
2023/06/27 02:21:18;;;;;;;;;8.67;8.00;;;;;23.69;59.64;100628.47;146621;579;46012;-69
2023/06/27 02:24:38;;;;;;;;;11.33;10.00;;;;;22.71;59.12;100454.16;146618;627;46016;-67
2023/06/27 02:27:54;;;;;;;;;10.00;8.50;;;;;23.74;60.08;100625.81;146620;663;45020;-67
2023/06/27 02:30:59;;;;;;;;;7.00;6.67;;;;;23.78;60.00;100629.34;146619;593;46016;-67
2023/06/27 02:34:01;;;;;;;;;10.33;10.00;;;;;23.85;59.53;100634.56;146622;575;47010;-67
2023/06/27 02:36:59;;;;;;;;;11.00;11.00;;;;;23.94;59.26;100639.81;146616;576;46016;-67
2023/06/27 02:40:06;;;;;;;;;12.25;10.50;;;;;23.96;59.61;100631.91;146620;602;46010;-68
2023/06/27 02:43:19;;;;;;;;;10.50;9.50;;;;;23.95;60.00;100646.00;146616;640;46017;-67
2023/06/27 02:46:13;;;;;;;;;10.33;10.00;;;;;23.94;60.91;100645.12;146622;575;46020;-67
2023/06/27 02:49:25;;;;;;;;;11.50;11.00;;;;;23.94;60.06;100631.88;146614;596;47012;-67
2023/06/27 02:52:23;;;;;;;;;12.33;9.33;;;;;23.90;60.25;100639.88;146624;604;46010;-67
2023/06/27 02:55:15;;;;;;;;;11.00;9.33;;;;;23.89;60.30;100640.72;146621;611;46012;-69
2023/06/27 02:58:08;;;;;;;;;11.33;10.67;;;;;23.93;60.28;100647.78;146619;663;46021;-68
2023/06/27 03:01:07;;;;;;;;;11.25;10.75;;;;;23.98;60.08;100652.16;146617;659;46016;-67
2023/06/27 03:04:01;;;;;;;;;12.50;9.00;;;;;24.09;59.96;100648.59;146619;694;46020;-67
2023/06/27 03:07:06;;;;;;;;;11.67;8.67;;;;;24.19;59.18;100655.59;146619;572;45918;-67
2023/06/27 03:09:58;;;;;;;;;13.00;12.00;;;;;24.17;59.68;100650.31;146620;667;46012;-68
2023/06/27 03:12:54;;;;;;;;;13.00;12.25;;;;;24.11;59.93;100652.09;146618;584;46012;-69
2023/06/27 03:16:00;;;;;;;;;11.50;9.50;;;;;24.02;60.87;100653.06;146618;608;46020;-68
2023/06/27 03:19:04;;;;;;;;;11.25;11.25;;;;;23.99;61.23;100653.06;146616;617;46926;-70
2023/06/27 03:22:08;;;;;;;;;11.33;9.00;;;;;23.98;60.54;100659.22;146621;618;46021;-69
2023/06/27 03:25:21;;;;;;;;;10.33;10.00;;;;;23.96;61.10;100658.38;146617;602;46016;-68
2023/06/27 03:28:35;;;;;;;;;14.25;13.25;;;;;24.00;63.54;100654.81;146614;713;46020;-68
2023/06/27 03:31:50;;;;;;;;;18.50;12.75;;;;;22.96;62.16;100478.81;146618;727;46012;-69
2023/06/27 03:34:48;;;;;;;;;12.00;11.00;;;;;24.06;63.32;100665.38;146619;580;46021;-69
2023/06/27 03:37:50;;;;;;;;;14.25;11.75;;;;;24.07;63.10;100653.87;146615;671;46017;-68
2023/06/27 03:41:01;;;;;;;;;12.25;11.50;;;;;24.13;62.94;100659.16;146619;656;46010;-68
2023/06/27 03:43:57;;;;;;;;;13.67;10.00;;;;;24.25;63.57;100667.94;146616;590;46918;-68
2023/06/27 03:46:53;;;;;;;;;12.00;11.33;;;;;24.34;63.74;100665.22;146621;566;46012;-69
2023/06/27 03:49:49;;;;;;;;;11.00;8.00;;;;;24.47;63.47;100674.00;146612;643;47917;-67
2023/06/27 03:52:48;;;;;;;;;8.00;8.00;;;;;24.60;63.09;100671.25;146622;572;46020;-68
2023/06/27 03:55:59;;;;;;;;;;;;;;;;;;;;;
2023/06/27 03:59:01;;;;;;;;;13.33;11.67;;;;;24.82;63.31;100673.75;146620;595;46020;-69
2023/06/27 04:02:08;;;;;;;;;12.50;10.75;;;;;24.91;63.31;100672.78;146617;680;46016;-69
2023/06/27 04:05:10;;;;;;;;;10.50;9.00;;;;;25.02;62.81;100676.25;146614;590;46011;-68
2023/06/27 04:08:17;;;;;;;;;15.33;14.33;;;;;25.11;63.15;100681.47;146617;705;46014;-68
2023/06/27 04:11:24;;;;;;;;;;;;;;;;;;;;;
2023/06/27 04:14:36;;;;;;;;;17.00;13.25;;;;;24.51;63.07;100537.91;146618;702;46017;-68
2023/06/27 04:17:36;;;;;;;;;12.00;11.25;;;;;25.64;62.73;100676.50;146622;696;46020;-69
2023/06/27 04:20:41;;;;;;;;;15.50;13.50;;;;;25.81;61.62;100690.53;146613;582;46017;-69
2023/06/27 04:23:40;;;;;;;;;13.33;11.33;;;;;25.97;62.11;100696.53;146620;631;46028;-69
2023/06/27 04:26:37;;;;;;;;;19.67;13.67;;;;;26.11;61.66;100699.88;146617;696;46016;-69
2023/06/27 04:29:34;;;;;;;;;15.00;13.00;;;;;26.21;62.00;100698.88;146620;657;46020;-70
2023/06/27 04:32:44;;;;;;;;;;;;;;;;;;;;;
2023/06/27 04:36:00;;;;;;;;;14.00;11.00;;;;;25.41;59.87;100525.47;146621;569;46010;-69
2023/06/27 04:39:04;;;;;;;;;12.25;10.00;;;;;26.59;59.17;100701.91;146615;693;46016;-69
2023/06/27 04:42:23;;;;;;;;;11.00;11.00;;;;;26.77;59.19;100698.09;146621;593;46021;-69
2023/06/27 04:45:18;;;;;;;;;12.00;11.75;;;;;26.95;59.89;100701.34;146617;579;46016;-69
2023/06/27 04:48:35;;;;;;;;;13.67;13.00;;;;;26.07;59.07;100546.69;146621;576;46010;-69
2023/06/27 04:51:39;;;;;;;;;15.00;13.25;;;;;26.97;58.92;100708.41;146615;571;46012;-68
2023/06/27 04:54:40;;;;;;;;;13.33;12.00;;;;;26.91;59.56;100718.22;146617;581;46020;-68
2023/06/27 04:57:39;;;;;;;;;13.33;11.67;;;;;26.94;60.39;100717.31;146619;622;46014;-69
2023/06/27 05:00:36;;;;;;;;;14.67;13.00;;;;;27.01;59.91;100715.41;146619;613;47010;-69
2023/06/27 05:03:30;;;;;;;;;13.75;12.50;;;;;27.21;59.54;100723.12;146619;570;46012;-68
2023/06/27 05:06:22;;;;;;;;;13.00;12.50;;;;;27.38;59.47;100721.00;146619;582;46020;-69
2023/06/27 05:09:20;;;;;;;;;14.00;13.50;;;;;27.57;58.62;100727.78;146618;630;46016;-70
2023/06/27 05:12:15;;;;;;;;;13.25;11.75;;;;;27.73;58.14;100724.84;146619;574;46010;-70
2023/06/27 05:15:18;;;;;;;;;14.75;13.75;;;;;27.86;57.03;100724.56;146616;686;46012;-71
2023/06/27 05:18:35;;;;;;;;;12.75;12.25;;;;;27.98;55.91;100718.13;146616;617;46021;-70
2023/06/27 05:21:29;;;;;;;;;12.50;11.50;;;;;28.11;57.18;100728.53;146617;623;46034;-69
2023/06/27 05:24:33;;;;;;;;;14.50;12.00;;;;;28.25;57.23;100729.09;146621;565;46020;-68
2023/06/27 05:27:31;;;;;;;;;13.00;12.25;;;;;28.36;55.55;100734.22;146615;658;46016;-70
2023/06/27 05:30:48;;;;;;;;;12.75;12.00;;;;;28.37;54.89;100736.84;146619;573;46010;-69
2023/06/27 05:33:49;;;;;;;;;12.25;12.25;;;;;28.45;54.73;100734.91;146616;569;46012;-70
2023/06/27 05:36:56;;;;;;;;;10.33;10.00;;;;;28.50;53.26;100732.13;146621;570;46020;-69
2023/06/27 05:39:52;;;;;;;;;14.33;13.00;;;;;28.52;55.19;100744.53;146615;569;46016;-71
2023/06/27 05:42:48;;;;;;;;;10.00;9.00;;;;;28.25;52.14;100739.75;146623;643;45049;-70
2023/06/27 05:45:43;;;;;;;;;11.75;10.75;;;;;27.85;53.62;100737.91;146618;597;46016;-70
2023/06/27 05:48:47;;;;;;;;;9.00;9.00;;;;;27.61;55.65;100741.91;146624;620;45021;-69
2023/06/27 05:51:47;;;;;;;;;13.33;10.00;;;;;27.58;54.71;100739.31;146620;650;46016;-69
2023/06/27 05:54:50;;;;;;;;;13.00;13.00;;;;;27.58;57.35;100747.31;146620;652;46020;-70
2023/06/27 05:57:42;;;;;;;;;15.75;13.00;;;;;27.59;57.76;100746.38;146618;692;46012;-71
2023/06/27 06:00:50;;;;;;;;;13.67;12.00;;;;;27.53;57.47;100746.50;146622;649;46020;-69
2023/06/27 06:03:55;;;;;;;;;13.75;13.75;;;;;27.49;57.46;100747.47;146612;653;47014;-70
2023/06/27 06:06:55;;;;;;;;;17.00;13.25;;;;;27.50;56.49;100751.87;146621;631;46020;-70
2023/06/27 06:10:02;;;;;;;;;14.25;12.00;;;;;25.89;56.88;100456.66;146615;597;46017;-68
2023/06/27 06:12:57;;;;;;;;;12.00;12.00;;;;;27.71;57.39;100750.62;146621;701;46012;-69
2023/06/27 06:15:52;;;;;;;;;13.75;13.25;;;;;27.84;57.50;100762.81;146619;689;46012;-70
2023/06/27 06:18:47;;;;;;;;;13.00;11.75;;;;;27.95;56.15;100754.63;146619;613;46011;-69
2023/06/27 06:21:49;;;;;;;;;15.00;12.25;;;;;27.96;55.41;100746.59;146619;624;46012;-70
2023/06/27 06:24:48;;;;;;;;;13.50;12.25;;;;;28.01;55.51;100752.72;146613;729;45029;-69
2023/06/27 06:27:59;;;;;;;;;15.50;14.00;;;;;28.06;55.65;100756.13;146619;564;46012;-69
2023/06/27 06:30:55;;;;;;;;;13.50;11.50;;;;;28.24;53.87;100762.00;146619;692;46020;-69
2023/06/27 06:33:55;;;;;;;;;11.00;9.50;;;;;28.40;52.64;100757.22;146618;693;46012;-69
2023/06/27 06:36:56;;;;;;;;;10.33;10.00;;;;;28.58;52.68;100756.84;146624;595;45020;-71
2023/06/27 06:39:57;;;;;;;;;10.67;10.00;;;;;28.78;54.00;100757.28;146617;670;46016;-69
2023/06/27 06:42:53;;;;;;;;;13.00;10.25;;;;;28.90;52.86;100756.09;146621;625;45030;-69
2023/06/27 06:45:46;;;;;;;;;12.00;11.00;;;;;28.87;51.37;100758.84;146617;563;46016;-69
2023/06/27 06:48:43;;;;;;;;;;;;;;;;;;;;;
2023/06/27 06:51:39;;;;;;;;;14.00;12.25;;;;;28.31;54.63;100759.16;146611;597;46016;-68
2023/06/27 06:54:51;;;;;;;;;12.33;10.33;;;;;28.10;53.74;100767.66;146616;591;46020;-70
2023/06/27 06:58:05;;;;;;;;;9.00;9.00;;;;;27.98;54.87;100752.78;146612;571;46016;-73
2023/06/27 07:01:04;;;;;;;;;12.00;10.75;;;;;27.95;55.44;100755.50;146620;566;46020;-70
2023/06/27 07:03:59;;;;;;;;;15.50;13.00;;;;;27.91;56.63;100758.25;146616;642;46012;-71
2023/06/27 07:06:51;;;;;;;;;11.67;11.67;;;;;27.79;57.20;100752.25;146614;657;46012;-71
2023/06/27 07:09:49;;;;;;;;;12.33;12.00;;;;;27.67;57.49;100757.78;146612;635;46016;-71
2023/06/27 07:13:07;;;;;;;;;;;;;;;;;;;;;
2023/06/27 07:16:16;;;;;;;;;12.25;12.00;;;;;27.52;58.17;100753.62;146614;670;46012;-71
2023/06/27 07:19:19;;;;;;;;;13.75;10.50;;;;;27.53;56.97;100757.16;146616;642;46021;-68
2023/06/27 07:22:15;;;;;;;;;13.25;12.75;;;;;27.74;56.33;100753.22;146609;587;46012;-69
2023/06/27 07:25:20;;;;;;;;;14.00;12.75;;;;;28.02;55.69;100757.12;146615;625;46021;-69
2023/06/27 07:28:12;;;;;;;;;17.75;14.25;;;;;28.22;55.00;100766.50;146612;701;46014;-70
2023/06/27 07:31:05;;;;;;;;;14.00;13.00;;;;;28.32;54.82;100763.63;146614;608;46020;-71
2023/06/27 07:34:06;;;;;;;;;11.00;10.33;;;;;28.46;54.19;100763.34;146613;631;46017;-70
2023/06/27 07:37:28;;;;;;;;;10.67;9.67;;;;;28.48;53.88;100755.31;146609;765;46020;-70
2023/06/27 07:40:40;;;;;;;;;15.75;13.00;;;;;28.49;52.85;100757.94;146619;683;46030;-70
2023/06/27 07:43:37;;;;;;;;;12.25;12.00;;;;;28.44;52.98;100756.28;146614;630;46030;-71
2023/06/27 07:46:39;;;;;;;;;;;;;;;;;;;;;
2023/06/27 07:49:37;;;;;;;;;13.00;12.00;;;;;28.50;53.46;100765.00;146612;687;46021;-71
2023/06/27 07:52:21;;;;;;;;;8.25;6.25;;;;;28.74;52.65;100766.25;146708;563;46023;-70
2023/06/27 07:55:38;;;;;;;;;10.33;10.00;;;;;29.00;51.99;100768.31;146626;575;46016;-70
2023/06/27 07:58:32;;;;;;;;;15.33;12.00;;;;;29.13;51.44;100770.69;146621;595;47010;-70
2023/06/27 08:01:45;;;;;;;;;12.67;12.33;;;;;27.90;50.53;100565.50;146618;591;46916;-70
2023/06/27 08:04:48;;;;;;;;;10.33;9.33;;;;;28.93;51.73;100766.69;146620;696;46010;-69
2023/06/27 08:07:49;;;;;;;;;14.75;13.00;;;;;28.72;52.91;100762.75;146624;648;46012;-69
2023/06/27 08:11:13;;;;;;;;;18.25;16.25;;;;;27.56;52.96;100597.28;146621;577;46020;-70
2023/06/27 08:14:22;;;;;;;;;20.75;16.25;;;;;28.32;53.25;100762.75;146617;583;47014;-70
2023/06/27 08:17:27;;;;;;;;;17.33;13.00;;;;;28.10;54.32;100756.97;146622;712;46010;-68
2023/06/27 08:20:31;;;;;;;;;13.00;10.00;;;;;28.01;54.25;100758.03;146618;694;46016;-69
2023/06/27 08:23:49;;;;;;;;;;;;;;;;;;;;;
2023/06/27 08:26:49;;;;;;;;;11.67;10.67;;;;;27.96;53.87;100743.91;146618;668;46016;-70
2023/06/27 08:29:47;;;;;;;;;12.25;12.00;;;;;28.05;53.36;100750.84;146621;588;46020;-70
2023/06/27 08:33:13;;;;;;;;;;;;;;;;;;;;;
2023/06/27 08:36:18;;;;;;;;;8.00;8.00;;;;;28.41;51.44;100751.91;146619;710;46020;-70
2023/06/27 08:39:28;;;;;;;;;10.00;8.67;;;;;28.72;48.82;100748.53;146627;577;46016;-70
2023/06/27 08:42:32;;;;;;;;;8.00;7.33;;;;;29.01;47.92;100747.88;146628;565;47014;-69
2023/06/27 08:45:43;;;;;;;;;7.67;7.67;;;;;29.32;46.33;100747.97;146626;576;46013;-71
2023/06/27 08:48:50;;;;;;;;;9.33;7.00;;;;;29.61;45.36;100744.56;146629;635;46020;-71
2023/06/27 08:52:04;;;;;;;;;9.67;8.33;;;;;29.65;44.25;100748.03;146623;617;46012;-71
2023/06/27 08:55:10;;;;;;;;;9.00;8.00;;;;;29.64;46.37;100751.63;146623;606;46010;-70
2023/06/27 08:58:44;;;;;;;;;10.67;10.00;;;;;29.77;42.97;100752.16;146617;566;47014;-70
2023/06/27 09:02:04;;;;;;;;;8.33;8.33;;;;;29.10;46.73;100603.47;146622;569;46021;-71
2023/06/27 09:05:00;;;;;;;;;5.33;3.33;;;;;30.13;46.12;100742.22;146620;620;46014;-71
2023/06/27 09:08:22;;;;;;;;;9.25;8.25;;;;;29.42;48.07;100580.34;146621;583;47010;-71
2023/06/27 09:11:21;;;;;;;;;9.33;9.33;;;;;30.56;44.71;100733.81;146616;570;47014;-71
2023/06/27 09:14:28;;;;;;;;;10.25;8.50;;;;;30.69;45.56;100739.63;146620;606;46020;-71
2023/06/27 09:17:27;;;;;;;;;10.00;9.00;;;;;30.77;44.61;100734.03;146618;689;46016;-69
2023/06/27 09:20:29;;;;;;;;;7.00;7.00;;;;;30.89;43.19;100738.16;146621;582;46020;-71
2023/06/27 09:23:24;;;;;;;;;10.75;9.50;;;;;30.87;44.27;100735.50;146618;585;47012;-71
2023/06/27 09:26:24;;;;;;;;;10.25;8.00;;;;;30.88;44.71;100734.59;146622;693;46020;-70
2023/06/27 09:29:19;;;;;;;;;12.75;10.00;;;;;30.89;42.94;100730.97;146617;592;47015;-70
2023/06/27 09:32:18;;;;;;;;;9.33;8.33;;;;;30.90;43.84;100731.84;146621;564;47014;-70
2023/06/27 09:35:36;;;;;;;;;10.25;9.00;;;;;30.96;45.96;100731.66;146616;639;46016;-71
2023/06/27 09:38:28;;;;;;;;;7.67;5.33;;;;;31.00;43.21;100727.97;146623;654;47014;-70
2023/06/27 09:41:33;;;;;;;;;8.75;8.75;;;;;31.08;43.67;100744.63;146616;656;46913;-70
2023/06/27 09:44:55;;;;;;;;;9.67;9.67;;;;;31.18;45.20;100742.53;146621;572;47010;-70
2023/06/27 09:47:58;;;;;;;;;12.75;11.50;;;;;31.34;43.34;100741.13;146616;626;46028;-71
2023/06/27 09:51:04;;;;;;;;;11.67;10.00;;;;;31.43;41.68;100726.50;146620;574;46012;-70
2023/06/27 09:54:47;;;;;;;;;9.33;8.67;;;;;30.28;45.83;100535.84;146615;599;46017;-72
2023/06/27 09:58:00;;;;;;;;;10.00;8.00;;;;;31.42;42.49;100751.56;146624;653;46010;-71
2023/06/27 10:01:00;;;;;;;;;11.50;10.75;;;;;31.34;43.03;100740.22;146617;728;46016;-70
2023/06/27 10:03:58;;;;;;;;;10.50;8.00;;;;;31.27;42.78;100735.03;146622;594;46010;-72
2023/06/27 10:07:13;;;;;;;;;6.00;6.00;;;;;31.22;42.66;100731.66;146617;569;46016;-71
2023/06/27 10:10:19;;;;;;;;;12.00;10.00;;;;;31.13;45.72;100733.78;146625;569;46010;-70
2023/06/27 10:13:27;;;;;;;;;10.33;8.67;;;;;31.09;44.20;100740.16;146617;579;46016;-70
2023/06/27 10:16:34;;;;;;;;;10.75;9.50;;;;;31.08;44.75;100738.41;146622;570;46010;-70
2023/06/27 10:19:39;;;;;;;;;12.67;10.67;;;;;31.06;44.25;100728.63;146615;696;46016;-71
2023/06/27 10:22:44;;;;;;;;;12.25;12.25;;;;;31.05;45.97;100724.19;146619;578;46021;-71
2023/06/27 10:25:37;;;;;;;;;13.00;11.25;;;;;31.09;44.65;100730.31;146615;614;47012;-71
2023/06/27 10:28:36;;;;;;;;;10.75;10.75;;;;;31.07;45.71;100721.47;146621;579;46011;-71
2023/06/27 10:31:53;;;;;;;;;10.67;10.67;;;;;31.03;46.36;100728.75;146613;600;46016;-70
2023/06/27 10:34:50;;;;;;;;;7.50;6.25;;;;;31.00;45.41;100717.25;146624;569;46010;-69
2023/06/27 10:37:59;;;;;;;;;10.50;9.50;;;;;30.93;44.86;100724.59;146618;675;46013;-69
2023/06/27 10:41:33;;;;;;;;;9.67;9.00;;;;;29.88;46.88;100541.56;146621;646;46020;-70
2023/06/27 10:44:27;;;;;;;;;12.67;11.33;;;;;30.85;45.57;100717.75;146617;653;46016;-70
2023/06/27 10:47:51;;;;;;;;;10.00;9.67;;;;;29.87;46.87;100551.38;146623;583;46010;-69
2023/06/27 10:50:50;;;;;;;;;12.00;9.50;;;;;30.88;45.98;100717.66;146617;567;46911;-69
2023/06/27 10:53:56;;;;;;;;;7.33;7.33;;;;;30.94;46.70;100712.97;146622;650;46021;-70
2023/06/27 10:57:07;;;;;;;;;8.50;8.50;;;;;30.97;46.04;100707.53;146612;660;47914;-70
2023/06/27 11:00:34;;;;;;;;;10.33;9.00;;;;;31.04;46.46;100697.47;146624;605;47010;-69
2023/06/27 11:03:28;;;;;;;;;12.50;11.00;;;;;31.06;46.09;100701.84;146703;564;46012;-70
2023/06/27 11:07:22;;;;;;;;;13.25;10.50;;;;;31.04;47.48;100692.97;146618;600;46012;-70
2023/06/27 11:10:49;;;;;;;;;8.50;7.50;;;;;31.02;46.44;100693.97;146615;645;46020;-69
2023/06/27 11:14:28;;;;;;;;;11.25;10.50;;;;;31.03;47.05;100695.72;146617;592;46013;-69
2023/06/27 11:17:35;;;;;;;;;11.50;10.25;;;;;31.02;46.77;100712.72;146613;647;46020;-71
2023/06/27 11:20:52;;;;;;;;;9.50;8.50;;;;;30.99;47.46;100692.25;146612;665;46017;-70
2023/06/27 11:24:16;;;;;;;;;10.67;9.67;;;;;29.28;46.98;100391.09;146623;563;46010;-70
2023/06/27 11:27:32;;;;;;;;;8.00;6.00;;;;;31.01;47.34;100685.06;146618;569;46016;-73
2023/06/27 11:30:36;;;;;;;;;8.67;8.00;;;;;31.08;46.36;100695.56;146623;613;46012;-74
2023/06/27 11:33:52;;;;;;;;;10.33;10.33;;;;;31.06;46.04;100684.91;146617;642;47012;-72
2023/06/27 11:36:59;;;;;;;;;8.67;8.00;;;;;31.12;46.61;100675.78;146615;689;47010;-71
2023/06/27 11:40:30;;;;;;;;;9.67;8.33;;;;;30.85;47.49;100632.97;146619;604;46027;-73
2023/06/27 11:43:36;;;;;;;;;11.67;10.33;;;;;31.12;46.91;100684.66;146619;679;46021;-71
2023/06/27 11:46:32;;;;;;;;;8.00;8.00;;;;;31.06;46.34;100684.91;146614;731;46016;-73
2023/06/27 11:49:34;;;;;;;;;8.00;7.33;;;;;31.01;46.95;100678.84;146621;588;47012;-72
2023/06/27 11:52:41;;;;;;;;;9.33;8.67;;;;;31.03;46.46;100674.31;146621;610;46032;-72
2023/06/27 11:55:49;;;;;;;;;7.00;7.00;;;;;31.01;46.89;100665.44;146620;604;46020;-75
2023/06/27 11:58:44;;;;;;;;;11.00;8.67;;;;;31.04;46.59;100674.25;146618;575;46915;-75
2023/06/27 12:02:05;;;;;;;;;8.75;7.50;;;;;31.09;47.35;100667.84;146621;595;46020;-73
2023/06/27 12:05:05;;;;;;;;;6.67;6.67;;;;;31.09;45.76;100662.47;146618;577;47015;-72
2023/06/27 12:08:24;;;;;;;;;9.67;9.33;;;;;31.01;45.93;100660.09;146620;586;47010;-69
2023/06/27 12:11:17;;;;;;;;;5.33;5.33;;;;;30.92;44.87;100660.41;146618;573;46016;-71
2023/06/27 12:14:29;;;;;;;;;7.67;7.33;;;;;30.83;45.40;100643.72;146624;578;46010;-70
2023/06/27 12:17:39;;;;;;;;;5.75;5.50;;;;;30.92;45.01;100647.88;146619;664;46034;-70
2023/06/27 12:21:08;;;;;;;;;7.67;7.00;;;;;29.84;46.42;100447.22;146620;627;46021;-72
2023/06/27 12:24:13;;;;;;;;;6.00;6.00;;;;;30.88;46.44;100632.88;146620;570;46012;-77
2023/06/27 12:27:21;;;;;;;;;7.67;7.00;;;;;30.73;45.63;100609.25;146623;583;46020;-77
2023/06/27 12:30:17;;;;;;;;;4.33;4.33;;;;;30.92;44.61;100636.31;146618;610;46017;-74
2023/06/27 12:33:43;;;;;;;;;7.67;7.00;;;;;30.79;45.97;100625.16;146621;581;47010;-77
2023/06/27 12:37:04;;;;;;;;;7.00;6.00;;;;;30.82;45.83;100633.94;146620;686;46034;-76
2023/06/27 12:39:57;;;;;;;;;6.00;5.33;;;;;30.80;46.35;100634.91;146622;563;46010;-76
2023/06/27 12:43:04;;;;;;;;;6.67;6.67;;;;;30.78;46.71;100634.97;146618;592;46915;-75
2023/06/27 12:46:13;;;;;;;;;6.33;6.33;;;;;30.80;46.55;100638.47;146622;630;46020;-72
2023/06/27 12:49:24;;;;;;;;;6.00;6.00;;;;;30.74;46.20;100624.38;146617;676;47014;-75
2023/06/27 12:56:12;;;;;;;;;8.33;7.00;;;;;30.68;46.70;100621.91;146618;672;46016;-74
2023/06/27 12:59:30;;;;;;;;;5.00;5.00;;;;;30.53;46.82;100597.44;146622;586;46029;-75
2023/06/27 13:02:48;;;;;;;;;;;;;;;;;;;;;
2023/06/27 13:06:00;;;;;;;;;6.00;5.00;;;;;30.79;46.29;100612.63;146623;566;46010;-78
2023/06/27 13:09:14;;;;;;;;;8.00;7.00;;;;;30.78;46.86;100604.62;146617;573;46016;-75
2023/06/27 13:12:21;;;;;;;;;7.00;6.00;;;;;30.83;46.22;100624.09;146622;607;46021;-77
2023/06/27 13:15:18;;;;;;;;;8.67;6.67;;;;;30.81;45.56;100613.47;146618;586;46016;-77
2023/06/27 13:18:12;;;;;;;;;5.00;5.00;;;;;30.76;46.27;100617.19;146623;653;46010;-80
2023/06/27 13:21:14;;;;;;;;;5.75;4.25;;;;;30.76;46.55;100618.06;146618;589;46017;-76
2023/06/27 13:24:06;;;;;;;;;6.00;5.00;;;;;30.81;46.05;100617.91;146621;563;46010;-69
2023/06/27 13:27:15;;;;;;;;;7.00;6.00;;;;;30.80;46.59;100614.38;146619;605;46017;-71
2023/06/27 13:30:20;;;;;;;;;6.33;6.33;;;;;30.78;45.66;100612.66;146622;583;46020;-69
2023/06/27 13:33:15;;;;;;;;;9.00;6.00;;;;;30.73;47.78;100599.41;146621;606;46012;-77
2023/06/27 13:36:20;;;;;;;;;8.75;6.75;;;;;30.68;47.21;100603.19;146618;653;46021;-77
2023/06/27 13:39:26;;;;;;;;;;;;;;;;;;;;;
2023/06/27 13:42:36;;;;;;;;;7.67;6.33;;;;;30.65;47.82;100616.66;146623;633;46022;-78
2023/06/27 13:45:58;;;;;;;;;8.67;7.67;;;;;30.48;47.75;100590.47;146619;597;46016;-75
2023/06/27 13:48:58;;;;;;;;;6.00;5.00;;;;;30.37;48.57;100610.44;146621;589;46020;-77
2023/06/27 13:51:52;;;;;;;;;7.00;6.33;;;;;30.23;49.01;100612.66;146617;643;47016;-76
2023/06/27 13:54:58;;;;;;;;;6.33;5.67;;;;;30.06;48.76;100604.25;146621;573;46020;-74
2023/06/27 13:58:03;;;;;;;;;6.33;6.00;;;;;28.91;49.01;100420.69;146619;627;46012;-77
2023/06/27 14:01:00;;;;;;;;;5.33;5.33;;;;;29.90;49.91;100603.88;146623;571;46020;-79
2023/06/27 14:03:58;;;;;;;;;5.33;5.33;;;;;29.83;50.06;100603.19;146609;564;46016;-76
2023/06/27 14:07:14;;;;;;;;;;;;;;;;;;;;;
2023/06/27 14:10:21;;;;;;;;;9.00;7.33;;;;;28.68;49.69;100392.87;146613;608;46012;-71
2023/06/27 14:13:19;;;;;;;;;6.00;6.00;;;;;29.89;50.09;100586.94;146618;637;46010;-75
2023/06/27 14:16:30;;;;;;;;;6.00;6.00;;;;;29.93;49.07;100593.94;146613;596;46012;-76
2023/06/27 14:19:41;;;;;;;;;6.00;6.00;;;;;29.91;49.72;100585.13;146616;674;46021;-71
2023/06/27 14:22:37;;;;;;;;;9.33;6.00;;;;;29.90;49.85;100580.69;146609;593;47012;-72
2023/06/27 14:25:42;;;;;;;;;6.67;6.00;;;;;29.81;50.24;100572.94;146617;585;46019;-72
2023/06/27 14:28:49;;;;;;;;;5.00;4.33;;;;;29.76;49.80;100569.56;146613;573;46016;-71
2023/06/27 14:31:54;;;;;;;;;5.67;5.67;;;;;29.75;50.61;100575.81;146615;584;47010;-73
2023/06/27 14:34:48;;;;;;;;;7.00;6.00;;;;;29.69;50.40;100568.87;146612;582;46017;-73
2023/06/27 14:37:40;;;;;;;;;4.33;4.33;;;;;29.68;50.13;100560.88;146615;571;46020;-73
2023/06/27 14:40:36;;;;;;;;;6.67;6.67;;;;;29.63;50.17;100562.84;146610;684;46016;-76